Time;durP1;ratioP1;P1;durP2;ratioP2;P2;SDS_P1;SDS_P2;PMS_P1;PMS_P2;Temp;Humidity;BMP_temperature;BMP_pressure;BME280_temperature;BME280_humidity;BME280_pressure;Samples;Min_cycle;Max_cycle;Signal;HPM_P1;HPM_P2
2022/12/27 00:00:45;;;;;;;4.85;2.40;;;;;;;6.00;82.98;93264.69;2070951;69;20160;-71
2022/12/27 00:03:13;;;;;;;6.03;2.10;;;;;;;5.88;83.15;93267.16;2071224;69;20160;-71
2022/12/27 00:05:46;;;;;;;2.92;1.63;;;;;;;5.92;83.24;93259.16;2070502;69;20248;-71
2022/12/27 00:08:12;;;;;;;4.03;1.85;;;;;;;6.00;83.48;93259.84;2070138;69;20171;-71
2022/12/27 00:10:39;;;;;;;2.67;1.77;;;;;;;5.56;85.53;93273.44;2071190;69;20606;-71
2022/12/27 00:13:06;;;;;;;3.75;1.85;;;;;;;5.86;84.28;93281.69;2067790;69;20581;-71
2022/12/27 00:15:34;;;;;;;2.08;1.70;;;;;;;5.85;83.59;93294.16;2070323;69;20504;-71
2022/12/27 00:18:00;;;;;;;2.60;1.60;;;;;;;5.93;83.35;93322.09;2071058;69;20172;-71
2022/12/27 00:20:26;;;;;;;2.67;1.90;;;;;;;5.96;82.59;93337.75;2067722;69;20144;-71
2022/12/27 00:22:52;;;;;;;2.55;1.50;;;;;;;6.08;83.20;93347.19;2071037;69;20152;-71
2022/12/27 00:25:18;;;;;;;3.85;1.80;;;;;;;5.77;84.19;93357.72;2071066;69;20159;-70
2022/12/27 00:27:44;;;;;;;4.22;3.05;;;;;;;5.40;85.00;93362.09;2070160;69;20532;-72
2022/12/27 00:30:10;;;;;;;4.53;2.40;;;;;;;5.23;87.61;93356.38;2067048;69;20480;-71
2022/12/27 00:32:36;;;;;;;4.05;2.28;;;;;;;5.47;87.75;93366.19;2067520;69;20157;-72
2022/12/27 00:35:03;;;;;;;4.00;2.28;;;;;;;5.74;86.13;93361.66;2067666;69;20568;-71
2022/12/27 00:37:29;;;;;;;4.40;2.03;;;;;;;5.72;85.95;93350.28;2065632;69;20172;-71
2022/12/27 00:39:55;;;;;;;4.75;1.77;;;;;;;5.98;85.02;93363.06;2067589;69;20532;-72
2022/12/27 00:42:22;;;;;;;3.03;1.80;;;;;;;6.03;84.57;93355.78;2067756;69;20164;-71
2022/12/27 00:44:48;;;;;;;7.55;1.60;;;;;;;6.18;84.11;93363.34;2066994;69;20171;-71
2022/12/27 00:47:14;;;;;;;5.32;1.52;;;;;;;6.18;83.67;93355.72;2067017;69;20600;-71
2022/12/27 00:49:40;;;;;;;3.55;1.00;;;;;;;6.17;84.00;93356.28;2066741;69;20165;-71
2022/12/27 00:52:06;;;;;;;3.45;1.50;;;;;;;6.21;83.99;93346.19;2064414;69;20225;-71
2022/12/27 00:54:32;;;;;;;1.95;1.20;;;;;;;6.31;83.61;93355.47;2064248;69;20192;-71
2022/12/27 00:56:58;;;;;;;1.20;1.10;;;;;;;6.35;84.03;93366.25;2067724;69;20155;-71
2022/12/27 00:59:24;;;;;;;1.23;1.10;;;;;;;6.26;84.41;93361.28;2067861;69;20224;-71
2022/12/27 01:01:50;;;;;;;2.85;1.70;;;;;;;6.08;84.80;93366.00;2067145;69;20252;-71
2022/12/27 01:04:16;;;;;;;2.42;1.52;;;;;;;6.36;83.71;93365.69;2067001;69;20179;-72
2022/12/27 01:06:42;;;;;;;3.17;1.25;;;;;;;6.36;83.63;93371.28;2067429;69;20240;-71
2022/12/27 01:09:10;;;;;;;5.45;1.50;;;;;;;6.39;83.13;93377.06;2067629;69;20141;-72
2022/12/27 01:11:35;;;;;;;2.00;1.23;;;;;;;6.47;82.41;93380.56;2067762;69;20153;-72
2022/12/27 01:14:03;;;;;;;3.17;1.38;;;;;;;6.40;82.80;93379.28;2067914;69;20156;-71
2022/12/27 01:16:30;;;;;;;2.97;1.50;;;;;;;6.29;83.80;93385.31;2066865;69;20506;-72
2022/12/27 01:18:57;;;;;;;2.40;1.50;;;;;;;6.40;83.14;93370.16;2067857;69;20159;-72
2022/12/27 01:21:24;;;;;;;2.65;1.30;;;;;;;6.46;82.51;93379.06;2067800;69;20188;-72
2022/12/27 01:23:50;;;;;;;2.63;2.00;;;;;;;6.33;83.04;93385.66;2067385;69;20207;-72
2022/12/27 01:26:18;;;;;;;2.22;1.73;;;;;;;6.14;84.09;93391.72;2066520;69;20267;-73
2022/12/27 01:28:45;;;;;;;3.13;1.70;;;;;;;6.27;83.30;93388.66;2067761;69;20152;-72
2022/12/27 01:31:14;;;;;;;2.33;1.60;;;;;;;6.36;83.37;93404.09;2064578;69;20614;-72
2022/12/27 01:33:40;;;;;;;2.53;1.80;;;;;;;6.26;83.16;93403.94;2064460;69;20161;-72
2022/12/27 01:36:15;;;;;;;3.67;1.80;;;;;;;6.31;82.84;93405.78;2063170;69;20152;-72
2022/12/27 01:38:42;;;;;;;2.80;1.67;;;;;;;6.29;83.20;93402.81;2062767;69;20386;-72
2022/12/27 01:44:41;;;;;;;3.03;1.80;;;;;;;6.36;82.75;93423.66;2064362;69;20199;-72
2022/12/27 01:47:38;;;;;;;3.10;1.70;;;;;;;6.44;82.94;93410.41;2062891;69;20175;-72
2022/12/27 01:50:17;;;;;;;2.50;1.58;;;;;;;6.32;82.97;93406.53;2058353;69;20871;-72
2022/12/27 01:52:49;;;;;;;2.75;1.70;;;;;;;5.92;85.58;93420.50;2064796;69;20558;-72
2022/12/27 01:55:27;;;;;;;2.85;1.80;;;;;;;6.11;84.80;93429.19;2064324;69;20192;-72
2022/12/27 01:57:59;;;;;;;3.50;1.70;;;;;;;6.12;83.46;93430.66;2064414;69;20152;-73
2022/12/27 02:00:24;;;;;;;2.60;1.65;;;;;;;6.18;84.15;93424.88;2064714;69;20165;-73
2022/12/27 02:02:51;;;;;;;2.65;1.70;;;;;;;6.23;83.44;93416.28;2064988;69;20465;-72
2022/12/27 02:05:19;;;;;;;2.03;1.77;;;;;;;6.09;83.77;93417.81;2064363;69;20232;-72
2022/12/27 02:08:04;;;;;;;3.15;1.77;;;;;;;6.19;84.83;93431.97;2062585;69;20609;-73
2022/12/27 02:10:30;;;;;;;4.25;2.10;;;;;;;6.15;83.37;93417.63;2062724;69;20625;-73
2022/12/27 02:12:57;;;;;;;5.55;2.70;;;;;;;5.71;85.70;93418.63;2064428;69;20578;-73
2022/12/27 02:15:22;;;;;;;4.18;2.53;;;;;;;5.88;85.36;93412.47;2063501;69;20570;-73
2022/12/27 02:17:49;;;;;;;5.45;2.42;;;;;;;5.90;85.54;93412.63;2063746;69;20137;-73
2022/12/27 02:20:18;;;;;;;5.32;2.65;;;;;;;5.93;85.19;93414.34;2064972;69;20686;-72
2022/12/27 02:25:49;;;;;;;6.80;2.20;;;;;;;6.06;83.55;93428.09;2063978;69;20152;-73
2022/12/27 02:28:52;;;;;;;5.90;2.63;;;;;;;6.05;83.29;93421.00;2061085;69;20246;-73
2022/12/27 02:31:36;;;;;;;2.70;1.90;;;;;;;6.11;82.36;93418.00;2063826;69;20145;-72
2022/12/27 02:34:11;;;;;;;3.78;1.60;;;;;;;6.03;82.86;93414.47;2068134;69;20235;-73
2022/12/27 02:36:39;;;;;;;3.67;2.25;;;;;;;5.77;83.01;93402.44;2065575;69;20143;-73
2022/12/27 02:39:05;;;;;;;3.83;2.65;;;;;;;5.70;82.82;93414.38;2067720;69;20180;-72
2022/12/27 02:53:06;;;;;;;4.47;3.05;;;;;;;5.68;83.96;93446.94;2066654;69;20144;-73
2022/12/27 02:59:34;;;;;;;3.42;2.60;;;;;;;5.70;84.62;93433.91;2067816;69;20575;-73
2022/12/27 03:05:12;;;;;;;3.55;1.95;;;;;;;5.77;84.02;93429.63;2067425;69;20488;-74
2022/12/27 03:07:55;;;;;;;4.25;1.92;;;;;;;5.77;83.31;93421.22;2063137;69;20149;-75
2022/12/27 03:16:22;;;;;;;5.88;1.80;;;;;;;5.71;84.04;93426.28;2068268;69;20232;-73
2022/12/27 03:19:02;;;;;;;3.58;2.10;;;;;;;5.67;83.31;93423.13;2068011;69;20148;-74
2022/12/27 03:27:17;;;;;;;3.25;2.05;;;;;;;5.32;84.32;93445.16;2067868;69;20148;-73
2022/12/27 03:35:38;;;;;;;2.85;1.80;;;;;;;5.40;84.84;93468.19;2070893;69;20280;-73
2022/12/27 03:38:05;;;;;;;4.40;1.70;;;;;;;5.52;85.17;93471.38;2068256;69;20231;-73
2022/12/27 03:43:09;;;;;;;2.22;1.63;;;;;;;5.56;84.17;93468.97;2069170;69;20213;-73
2022/12/27 03:43:26;;;;;;;4.00;1.40;;;;;;;5.69;84.35;93476.41;2069928;69;20251;-72
2022/12/27 03:46:32;;;;;;;1.98;1.50;;;;;;;5.61;84.11;93493.16;2070730;69;20283;-72
2022/12/27 03:49:16;;;;;;;2.00;1.50;;;;;;;5.68;83.60;93483.28;2053639;69;20154;-72
2022/12/27 03:51:48;;;;;;;2.20;1.40;;;;;;;5.39;85.15;93479.94;2050311;70;20216;-73
2022/12/27 03:54:26;;;;;;;1.70;1.30;;;;;;;5.46;86.04;93476.41;2055172;69;20437;-72
2022/12/27 03:56:58;;;;;;;3.90;1.30;;;;;;;5.57;84.58;93478.81;2053533;69;20157;-73
2022/12/27 03:59:24;;;;;;;1.70;1.30;;;;;;;5.54;84.26;93480.69;2053656;69;20217;-72
2022/12/27 04:01:50;;;;;;;1.70;1.20;;;;;;;5.68;84.24;93486.06;2053392;70;20161;-72
2022/12/27 04:04:15;;;;;;;1.30;1.10;;;;;;;5.53;84.81;93495.94;2053018;70;20137;-72
2022/12/27 04:06:41;;;;;;;2.42;1.38;;;;;;;5.63;84.42;93490.53;2053434;69;20204;-73
2022/12/27 04:36:34;;;;;;;4.63;2.80;;;;;;;5.70;83.62;93519.78;2070913;69;20146;-74
2022/12/27 04:39:00;;;;;;;10.25;3.75;;;;;;;5.63;84.30;93520.53;2070753;69;20140;-73
2022/12/27 04:55:27;;;;;;;4.38;3.03;;;;;;;5.61;84.35;93532.25;2073200;69;20164;-72
2022/12/27 04:57:54;;;;;;;4.13;2.92;;;;;;;5.60;84.47;93534.31;2074526;69;20251;-73
2022/12/27 05:03:13;;;;;;;6.68;3.50;;;;;;;5.64;83.52;93538.78;2068455;69;20152;-72
2022/12/27 05:05:41;;;;;;;4.88;2.85;;;;;;;5.69;83.02;93540.66;2067138;69;20156;-72
2022/12/27 05:16:22;;;;;;;20.55;11.05;;;;;;;5.55;83.35;93534.50;2070076;69;20204;-72
2022/12/27 05:18:48;;;;;;;14.48;7.97;;;;;;;5.55;83.91;93540.84;2070849;69;20257;-73
2022/12/27 05:21:13;;;;;;;10.77;5.50;;;;;;;5.59;83.97;93544.00;2070686;69;20148;-72
2022/12/27 05:26:26;;;;;;;8.32;4.72;;;;;;;5.69;83.23;93554.63;2070844;69;20347;-73
2022/12/27 05:28:54;;;;;;;6.22;3.92;;;;;;;5.61;83.72;93544.19;2071408;69;20148;-72
2022/12/27 05:31:25;;;;;;;9.88;5.07;;;;;;;5.35;85.06;93564.81;2071435;69;20155;-73
2022/12/27 05:33:51;;;;;;;6.68;4.70;;;;;;;5.37;85.25;93569.13;2071677;69;20144;-72
2022/12/27 05:36:18;;;;;;;10.30;6.00;;;;;;;5.28;85.23;93564.81;2070946;69;20124;-72
2022/12/27 05:38:43;;;;;;;9.93;4.40;;;;;;;5.27;84.57;93564.09;2070130;69;20160;-72
2022/12/27 05:41:09;;;;;;;6.90;4.85;;;;;;;5.41;83.99;93575.84;2070028;69;20685;-72
2022/12/27 05:43:36;;;;;;;8.32;5.15;;;;;;;5.50;83.76;93583.66;2071435;69;20262;-72
2022/12/27 05:46:10;;;;;;;11.20;5.57;;;;;;;5.54;83.43;93578.47;2071514;69;20556;-72
2022/12/27 05:48:36;;;;;;;7.30;5.38;;;;;;;5.62;83.22;93581.25;2070624;69;20159;-71
2022/12/27 05:51:05;;;;;;;10.85;5.57;;;;;;;5.53;83.52;93581.78;2071549;69;20168;-71
2022/12/27 05:53:31;;;;;;;12.20;7.25;;;;;;;5.55;83.66;93587.56;2071491;69;20145;-73
2022/12/27 05:55:57;;;;;;;10.98;6.22;;;;;;;5.41;84.25;93583.47;2071318;69;20565;-72
2022/12/27 05:58:24;;;;;;;13.63;9.75;;;;;;;5.46;84.43;93571.38;2067076;69;20189;-74
2022/12/27 06:00:50;;;;;;;17.25;9.70;;;;;;;5.37;85.36;93566.34;2071487;69;20189;-74
2022/12/27 06:03:16;;;;;;;23.10;10.30;;;;;;;5.52;84.89;93581.03;2068941;69;20644;-73
2022/12/27 06:05:42;;;;;;;15.65;9.55;;;;;;;5.50;84.26;93583.66;2070011;69;20172;-72
2022/12/27 06:08:08;;;;;;;17.58;9.68;;;;;;;5.54;84.26;93594.44;2065475;69;20220;-73
2022/12/27 06:10:34;;;;;;;16.75;10.95;;;;;;;5.53;83.75;93581.78;2071059;69;20156;-72
2022/12/27 06:13:00;;;;;;;13.27;8.30;;;;;;;5.43;84.77;93584.38;2071370;69;20500;-71
2022/12/27 06:15:27;;;;;;;12.43;7.90;;;;;;;5.28;85.51;93592.75;2070722;69;20145;-71
2022/12/27 06:17:52;;;;;;;9.90;6.97;;;;;;;5.48;84.11;93593.88;2071438;69;20154;-73
2022/12/27 06:20:18;;;;;;;12.05;8.63;;;;;;;5.40;84.20;93591.06;2071478;69;20152;-72
2022/12/27 06:22:44;;;;;;;18.23;11.15;;;;;;;5.28;83.88;93573.19;2071474;69;20605;-73
2022/12/27 06:25:10;;;;;;;17.65;11.60;;;;;;;5.42;83.41;93601.72;2070400;69;20246;-73
2022/12/27 06:27:36;;;;;;;21.60;14.55;;;;;;;5.34;83.70;93610.06;2071525;69;20159;-73
2022/12/27 06:30:03;;;;;;;16.27;9.07;;;;;;;5.28;83.96;93615.06;2071344;69;20240;-73
2022/12/27 06:32:29;;;;;;;15.93;10.82;;;;;;;5.31;83.57;93609.13;2070828;69;20242;-73
2022/12/27 06:34:55;;;;;;;37.95;24.52;;;;;;;5.14;83.73;93605.38;2071425;69;20724;-72
2022/12/27 06:37:20;;;;;;;42.28;23.58;;;;;;;5.15;85.05;93609.66;2068006;69;20152;-72
2022/12/27 06:39:46;;;;;;;37.97;22.45;;;;;;;5.18;84.00;93603.69;2071407;69;20620;-73
2022/12/27 06:42:11;;;;;;;54.20;28.30;;;;;;;5.29;83.80;93613.78;2068112;69;20199;-73
2022/12/27 06:44:37;;;;;;;59.83;29.52;;;;;;;5.33;83.28;93625.31;2071249;69;20152;-72
2022/12/27 06:47:02;;;;;;;48.10;24.85;;;;;;;5.19;82.94;93613.56;2071135;69;20186;-73
2022/12/27 06:49:28;;;;;;;46.03;23.85;;;;;;;5.20;83.84;93615.06;2067434;69;20148;-72
2022/12/27 06:51:55;;;;;;;36.15;18.65;;;;;;;5.07;84.80;93610.34;2071364;69;20144;-73
2022/12/27 06:54:21;;;;;;;38.30;20.25;;;;;;;5.15;83.93;93615.22;2071431;69;20221;-74
2022/12/27 06:56:46;;;;;;;48.58;26.02;;;;;;;5.00;83.46;93613.13;2071447;69;20600;-74
2022/12/27 06:59:12;;;;;;;103.57;49.38;;;;;;;4.96;85.49;93621.84;2071435;69;20163;-73
2022/12/27 07:01:38;;;;;;;78.45;39.83;;;;;;;4.99;85.52;93622.78;2071456;69;20153;-73
2022/12/27 07:04:04;;;;;;;76.47;38.08;;;;;;;5.03;84.29;93625.97;2070565;69;20198;-73
2022/12/27 07:06:31;;;;;;;52.63;25.90;;;;;;;5.06;84.26;93627.66;2069726;69;20555;-72
2022/12/27 07:08:58;;;;;;;53.20;26.98;;;;;;;5.24;85.12;93634.22;2070763;69;20203;-73
2022/12/27 07:11:24;;;;;;;55.50;28.15;;;;;;;5.26;84.34;93637.22;2069367;69;20471;-73
2022/12/27 07:13:53;;;;;;;55.08;29.17;;;;;;;5.27;84.44;93635.94;2071381;69;20618;-73
2022/12/27 07:16:22;;;;;;;56.92;29.40;;;;;;;5.29;84.05;93634.06;2068742;69;20204;-73
2022/12/27 07:18:47;;;;;;;55.70;29.83;;;;;;;5.16;84.76;93614.66;2070538;69;20162;-74
2022/12/27 07:21:17;;;;;;;50.88;31.63;;;;;;;5.39;84.91;93633.53;2069739;69;20168;-74
2022/12/27 07:23:44;;;;;;;48.28;27.77;;;;;;;5.49;84.71;93631.69;2070981;69;20220;-73
2022/12/27 07:26:13;;;;;;;46.08;25.80;;;;;;;5.30;85.05;93641.13;2071060;69;20275;-73
2022/12/27 07:28:39;;;;;;;41.03;23.10;;;;;;;5.44;85.03;93640.97;2067464;69;20269;-74
2022/12/27 07:31:14;;;;;;;31.35;16.02;;;;;;;5.48;84.39;93633.72;2069825;69;20152;-74
2022/12/27 07:33:40;;;;;;;26.85;15.45;;;;;;;5.35;85.43;93643.00;2069630;69;20673;-74
2022/12/27 07:36:09;;;;;;;21.08;12.88;;;;;;;5.38;85.74;93654.38;2069918;69;20167;-72
2022/12/27 07:38:35;;;;;;;18.05;10.38;;;;;;;5.50;84.79;93661.88;2071065;69;20608;-73
2022/12/27 07:41:01;;;;;;;10.85;6.95;;;;;;;5.21;86.49;93649.28;2070076;69;20152;-72
2022/12/27 07:43:34;;;;;;;15.40;7.75;;;;;;;4.91;87.67;93656.25;2069807;69;20164;-72
2022/12/27 07:46:09;;;;;;;10.05;7.07;;;;;;;5.05;88.49;93665.25;2067328;69;20464;-72
2022/12/27 07:48:35;;;;;;;11.18;6.75;;;;;;;5.41;86.75;93670.03;2071216;69;20156;-74
2022/12/27 07:51:02;;;;;;;18.05;6.70;;;;;;;5.58;85.64;93675.84;2068264;69;20152;-73
2022/12/27 07:53:30;;;;;;;11.93;7.25;;;;;;;5.51;85.37;93682.16;2066722;69;20481;-72
2022/12/27 07:55:56;;;;;;;11.93;7.40;;;;;;;5.61;85.30;93692.25;2071058;69;20680;-72
2022/12/27 07:58:23;;;;;;;15.38;9.05;;;;;;;5.53;85.16;93693.50;2070300;69;20148;-72
2022/12/27 08:00:51;;;;;;;9.18;6.45;;;;;;;5.51;85.96;93684.94;2064305;69;20163;-72
2022/12/27 08:03:19;;;;;;;10.70;7.70;;;;;;;5.21;87.06;93696.75;2069411;69;20596;-72
2022/12/27 08:05:48;;;;;;;12.05;6.70;;;;;;;5.52;85.56;93698.34;2069537;69;20218;-72
2022/12/27 08:08:16;;;;;;;13.68;7.53;;;;;;;5.72;84.76;93701.56;2070641;69;20160;-73
2022/12/27 08:10:43;;;;;;;10.60;7.10;;;;;;;5.76;84.74;93702.69;2066634;69;20152;-74
2022/12/27 08:13:11;;;;;;;10.57;7.32;;;;;;;5.81;84.62;93704.56;2070859;69;20220;-73
2022/12/27 08:15:40;;;;;;;10.70;7.20;;;;;;;5.77;85.13;93703.44;2071048;69;20180;-73
2022/12/27 08:18:06;;;;;;;13.70;8.10;;;;;;;5.86;84.48;93716.88;2069175;69;20172;-73
2022/12/27 08:20:32;;;;;;;13.57;7.75;;;;;;;5.95;84.61;93710.78;2070986;69;20136;-73
2022/12/27 08:22:57;;;;;;;11.00;7.35;;;;;;;6.04;84.45;93715.81;2069796;69;20310;-71
2022/12/27 08:25:23;;;;;;;9.88;7.07;;;;;;;5.99;84.30;93713.94;2070662;69;20203;-71
2022/12/27 08:27:48;;;;;;;11.35;7.88;;;;;;;6.00;84.53;93717.50;2069297;69;20148;-71
2022/12/27 08:30:14;;;;;;;9.60;7.40;;;;;;;5.86;84.50;93725.25;2069327;69;20141;-71
2022/12/27 08:32:40;;;;;;;12.80;7.88;;;;;;;5.76;85.41;93727.09;2068309;69;20144;-74
2022/12/27 08:35:05;;;;;;;12.43;8.55;;;;;;;5.82;85.81;93717.25;2070071;69;20263;-73
2022/12/27 08:37:32;;;;;;;15.40;9.95;;;;;;;5.65;86.41;93713.50;2065732;69;20223;-71
2022/12/27 08:39:57;;;;;;;13.48;9.32;;;;;;;6.07;85.36;93722.34;2070586;69;20216;-71
2022/12/27 08:42:24;;;;;;;12.80;8.98;;;;;;;6.19;84.30;93722.75;2069764;69;20154;-71
2022/12/27 08:44:49;;;;;;;10.95;8.55;;;;;;;6.39;83.61;93730.22;2070638;69;20487;-73
2022/12/27 08:47:15;;;;;;;17.05;10.90;;;;;;;5.92;84.22;93725.13;2070709;69;20263;-74
2022/12/27 08:49:40;;;;;;;28.02;16.77;;;;;;;5.96;84.86;93726.25;2069783;69;20167;-73
2022/12/27 08:52:08;;;;;;;21.88;11.82;;;;;;;5.74;85.27;93719.28;2070957;69;20155;-72
2022/12/27 08:54:35;;;;;;;30.65;18.08;;;;;;;5.74;86.61;93724.13;2064841;69;20164;-74
2022/12/27 08:57:01;;;;;;;26.92;14.95;;;;;;;6.08;85.62;93727.38;2070012;69;20227;-73
2022/12/27 08:59:26;;;;;;;26.15;14.30;;;;;;;6.33;84.52;93729.66;2066232;69;20149;-74
2022/12/27 09:01:52;;;;;;;46.90;15.68;;;;;;;6.49;83.54;93727.59;2070900;69;20187;-73
2022/12/27 09:04:18;;;;;;;30.70;12.75;;;;;;;6.61;83.21;93731.53;2068554;69;20157;-72
2022/12/27 09:06:44;;;;;;;20.35;13.43;;;;;;;6.41;83.45;93733.19;2069471;69;20133;-73
2022/12/27 09:09:10;;;;;;;21.35;10.95;;;;;;;6.70;83.18;93742.16;2070128;69;20155;-73
2022/12/27 09:11:35;;;;;;;17.13;10.13;;;;;;;6.93;83.38;93744.19;2069951;69;20176;-73
2022/12/27 09:14:03;;;;;;;11.13;8.20;;;;;;;6.28;83.17;93745.31;2070006;69;20139;-73
2022/12/27 09:16:30;;;;;;;13.30;9.35;;;;;;;5.65;85.62;93752.59;2066938;69;20137;-74
2022/12/27 09:18:57;;;;;;;15.43;9.75;;;;;;;5.75;86.52;93743.13;2066122;69;20334;-72
2022/12/27 09:21:26;;;;;;;13.45;9.40;;;;;;;6.15;86.01;93755.94;2070278;69;20190;-74
2022/12/27 09:23:51;;;;;;;14.95;9.48;;;;;;;6.00;85.40;93753.81;2069995;69;20214;-74
2022/12/27 09:26:20;;;;;;;16.95;10.05;;;;;;;5.71;86.96;93765.09;2070144;69;20575;-74
2022/12/27 09:28:47;;;;;;;19.30;10.38;;;;;;;5.52;87.81;93768.19;2069005;69;20265;-73
2022/12/27 09:31:13;;;;;;;14.35;9.35;;;;;;;5.42;88.11;93752.50;2070453;69;20607;-72
2022/12/27 09:33:39;;;;;;;14.07;9.93;;;;;;;5.65;87.58;93763.78;2069727;69;20175;-73
2022/12/27 09:36:11;;;;;;;13.82;9.50;;;;;;;5.90;86.34;93769.63;2069507;69;20187;-73
2022/12/27 09:38:37;;;;;;;14.25;8.85;;;;;;;6.24;84.48;93760.97;2069885;69;20511;-72
2022/12/27 09:41:10;;;;;;;11.40;8.38;;;;;;;7.18;85.17;93767.44;2069711;69;20640;-73
2022/12/27 09:43:35;;;;;;;;;;;;;;;7.15;84.89;93765.78;2065306;69;20175;-73
2022/12/27 09:46:02;;;;;;;12.02;8.10;;;;;;;7.18;81.73;93767.44;2069120;69;20142;-75
2022/12/27 09:48:35;;;;;;;8.90;6.47;;;;;;;6.96;80.87;93766.19;2065070;69;20141;-74
2022/12/27 09:51:12;;;;;;;;;;;;;;;6.96;80.86;93765.44;2068396;69;20606;-74
2022/12/27 09:53:43;;;;;;;11.02;6.07;;;;;;;7.26;80.51;93770.25;2068933;69;20041;-75
2022/12/27 09:56:12;;;;;;;7.35;5.50;;;;;;;7.00;79.86;93772.16;2070095;69;20224;-75
2022/12/27 09:58:43;;;;;;;8.43;6.13;;;;;;;6.67;80.59;93773.31;2071088;69;20148;-75
2022/12/27 10:01:31;;;;;;;9.88;6.25;;;;;;;6.17;82.25;93762.44;2069422;69;20222;-75
2022/12/27 10:04:01;;;;;;;10.35;6.40;;;;;;;6.24;82.50;93766.56;2072803;69;20268;-75
2022/12/27 10:07:13;;;;;;;11.77;7.43;;;;;;;6.68;83.32;93766.38;2071318;69;20230;-74
2022/12/27 10:09:57;;;;;;;11.98;7.55;;;;;;;6.29;82.19;93768.44;2053818;69;20165;-74
2022/12/27 10:12:51;;;;;;;11.85;7.55;;;;;;;6.77;82.56;93766.56;2053698;69;20212;-75
2022/12/27 10:15:46;;;;;;;18.88;7.60;;;;;;;7.10;80.87;93764.69;2052973;69;20220;-74
2022/12/27 10:18:17;;;;;;;10.73;6.45;;;;;;;7.09;80.84;93770.81;2049896;70;20161;-74
2022/12/27 10:20:51;;;;;;;7.78;5.80;;;;;;;6.59;80.21;93765.63;2054158;69;20145;-74
2022/12/27 10:23:26;;;;;;;8.15;5.68;;;;;;;6.58;80.58;93760.59;2053944;70;20150;-74
2022/12/27 10:25:57;;;;;;;8.35;5.30;;;;;;;6.69;80.04;93762.28;2053780;70;20221;-74
2022/12/27 10:28:31;;;;;;;7.35;4.97;;;;;;;6.72;80.21;93761.16;2051883;69;20200;-74
2022/12/27 10:31:03;;;;;;;8.52;5.88;;;;;;;7.04;78.94;93766.19;2053619;69;20161;-73
2022/12/27 10:33:50;;;;;;;8.20;5.47;;;;;;;7.33;78.58;93766.66;2054015;69;20149;-74
2022/12/27 10:36:19;;;;;;;10.60;5.85;;;;;;;7.07;77.90;93770.66;2050363;70;20264;-74
2022/12/27 10:38:45;;;;;;;10.38;6.07;;;;;;;6.74;79.02;93769.75;2050309;70;20153;-74
2022/12/27 10:41:48;;;;;;;9.90;5.25;;;;;;;6.79;78.36;93766.78;2059345;69;20513;-74
2022/12/27 10:44:15;;;;;;;6.07;4.45;;;;;;;6.70;79.31;93781.31;2057226;69;20328;-74
2022/12/27 10:46:43;;;;;;;8.52;5.57;;;;;;;7.19;78.33;93777.34;2057007;69;20149;-74
2022/12/27 10:49:25;;;;;;;8.32;4.93;;;;;;;6.71;78.91;93790.47;2059842;69;20204;-74
2022/12/27 10:51:56;;;;;;;6.63;3.90;;;;;;;6.79;79.27;93777.97;2057550;69;20164;-74
2022/12/27 10:54:29;;;;;;;4.90;3.67;;;;;;;6.59;80.14;93779.63;2058616;69;20244;-74
2022/12/27 10:56:56;;;;;;;5.30;3.35;;;;;;;6.70;77.94;93772.94;2059970;69;20223;-74
2022/12/27 10:59:24;;;;;;;5.72;3.47;;;;;;;7.12;77.84;93778.84;2059096;69;20282;-74
2022/12/27 11:01:58;;;;;;;4.93;3.35;;;;;;;7.10;77.31;93789.13;2057400;69;20349;-74
2022/12/27 11:04:25;;;;;;;6.65;4.50;;;;;;;7.17;77.10;93785.56;2057532;69;20145;-74
2022/12/27 11:07:03;;;;;;;5.80;4.25;;;;;;;6.99;77.04;93784.66;2063995;69;20292;-74
2022/12/27 11:09:37;;;;;;;4.82;3.10;;;;;;;6.92;77.21;93785.44;2068085;69;20148;-74
2022/12/27 11:12:28;;;;;;;3.60;2.47;;;;;;;7.28;76.66;93782.38;2071603;69;20140;-74
2022/12/27 11:15:16;;;;;;;4.90;2.75;;;;;;;7.33;75.93;93784.25;2071496;69;20151;-75
2022/12/27 11:17:52;;;;;;;3.78;2.38;;;;;;;7.11;75.85;93785.03;2071141;69;20353;-74
2022/12/27 11:20:22;;;;;;;4.72;2.75;;;;;;;7.58;75.45;93783.59;2071283;69;20251;-74
2022/12/27 11:23:01;;;;;;;3.10;2.05;;;;;;;7.31;76.00;93777.69;2071001;69;20613;-74
2022/12/27 11:25:28;;;;;;;3.05;2.20;;;;;;;7.30;76.71;93770.63;2071298;69;20236;-74
2022/12/27 11:28:17;;;;;;;3.85;2.67;;;;;;;7.43;76.01;93766.84;2071070;69;20553;-73
2022/12/27 11:30:56;;;;;;;4.13;2.63;;;;;;;7.12;76.54;93764.84;2072584;69;20244;-74
2022/12/27 11:33:36;;;;;;;3.70;2.47;;;;;;;7.31;75.70;93764.44;2068547;69;20514;-74
2022/12/27 11:36:03;;;;;;;6.57;3.35;;;;;;;7.25;75.72;93758.31;2068208;69;20157;-74
2022/12/27 11:38:32;;;;;;;4.50;2.83;;;;;;;7.23;75.56;93763.72;2070942;69;20164;-74
2022/12/27 11:41:11;;;;;;;5.03;3.08;;;;;;;7.42;75.18;93763.28;2069247;69;20156;-73
2022/12/27 11:43:44;;;;;;;6.68;3.55;;;;;;;7.82;74.35;93763.31;2070724;69;20156;-74
2022/12/27 11:46:26;;;;;;;5.88;3.60;;;;;;;7.92;72.97;93763.47;2066962;69;20136;-74
2022/12/27 11:48:56;;;;;;;4.05;2.80;;;;;;;7.90;73.15;93772.44;2071109;69;20155;-74
2022/12/27 11:51:31;;;;;;;4.20;2.90;;;;;;;7.15;74.40;93757.41;2066223;69;20229;-74
2022/12/27 11:54:10;;;;;;;4.60;2.55;;;;;;;7.17;75.33;93759.63;2067294;69;20569;-74
2022/12/27 11:56:42;;;;;;;4.05;2.67;;;;;;;7.78;74.67;93759.41;2068822;69;20255;-74
2022/12/27 11:59:26;;;;;;;3.67;2.80;;;;;;;7.17;74.15;93751.97;2070830;69;20192;-74
2022/12/27 12:02:30;;;;;;;4.32;3.05;;;;;;;6.91;75.59;93757.97;2071306;69;20307;-75
2022/12/27 12:05:22;;;;;;;3.90;2.70;;;;;;;7.44;74.48;93759.94;2067997;69;20144;-74
2022/12/27 12:08:29;;;;;;;3.10;2.25;;;;;;;7.30;74.35;93757.34;2071015;69;20213;-74
2022/12/27 12:11:04;;;;;;;3.95;2.67;;;;;;;7.01;74.85;93744.88;2070475;69;20187;-74
2022/12/27 12:14:00;;;;;;;5.75;2.70;;;;;;;7.09;74.57;93749.16;2070765;69;20175;-74
2022/12/27 12:16:41;;;;;;;4.88;2.92;;;;;;;7.08;74.25;93749.75;2071253;69;20247;-74
2022/12/27 12:19:20;;;;;;;5.35;3.33;;;;;;;7.12;74.44;93745.25;2069386;69;20541;-73
2022/12/27 12:22:04;;;;;;;4.05;2.75;;;;;;;7.23;74.04;93746.16;2070671;69;20603;-74
2022/12/27 12:24:36;;;;;;;3.90;3.05;;;;;;;7.18;73.80;93739.44;2071085;69;20222;-74
2022/12/27 12:27:36;;;;;;;4.22;2.92;;;;;;;7.33;73.94;93736.63;2070738;69;20160;-74
2022/12/27 12:30:35;;;;;;;4.68;3.20;;;;;;;7.49;73.47;93728.91;2064661;69;20176;-74
2022/12/27 12:33:39;;;;;;;4.60;3.45;;;;;;;7.64;73.23;93733.69;2070687;69;20151;-75
2022/12/27 12:36:23;;;;;;;;;;;;;;;7.68;72.64;93725.63;2070286;69;20248;-74
2022/12/27 12:39:21;;;;;;;4.22;3.20;;;;;;;7.53;72.58;93732.06;2065646;69;20479;-74
2022/12/27 12:41:56;;;;;;;6.15;3.55;;;;;;;7.19;74.36;93729.72;2069386;69;20164;-73
2022/12/27 12:44:37;;;;;;;5.28;4.03;;;;;;;7.23;74.30;93724.50;2068491;69;20202;-73
2022/12/27 12:47:31;;;;;;;13.98;8.43;;;;;;;7.47;73.33;93728.72;2070345;69;20204;-73
2022/12/27 12:50:18;;;;;;;16.40;9.27;;;;;;;7.51;73.04;93728.31;2070129;69;20171;-73
2022/12/27 12:52:56;;;;;;;6.13;3.90;;;;;;;7.12;74.29;93736.09;2069545;69;20258;-73
2022/12/27 12:55:58;;;;;;;6.28;3.30;;;;;;;6.88;74.80;93732.63;2068863;69;20273;-73
2022/12/27 12:58:36;;;;;;;4.88;3.08;;;;;;;7.03;74.79;93734.63;2069488;69;20148;-74
2022/12/27 13:01:43;;;;;;;6.07;2.95;;;;;;;7.24;73.89;93725.22;2069632;69;20208;-75
2022/12/27 13:04:34;;;;;;;5.25;3.63;;;;;;;7.51;73.13;93723.47;2065147;69;20163;-74
2022/12/27 13:07:09;;;;;;;4.65;3.28;;;;;;;7.52;72.73;93710.97;2069528;69;20160;-73
2022/12/27 13:09:51;;;;;;;4.13;3.15;;;;;;;7.34;73.13;93714.94;2069085;69;20172;-74
2022/12/27 13:12:30;;;;;;;5.05;3.17;;;;;;;7.37;73.18;93713.81;2069655;69;20610;-74
2022/12/27 13:15:05;;;;;;;5.22;3.60;;;;;;;7.30;73.08;93711.78;2069222;69;20275;-74
2022/12/27 13:17:35;;;;;;;5.20;3.28;;;;;;;7.57;74.69;93714.88;2069702;69;20714;-74
2022/12/27 13:20:38;;;;;;;5.43;3.55;;;;;;;7.64;75.73;93719.66;2065566;69;20258;-74
2022/12/27 13:23:16;;;;;;;5.00;3.55;;;;;;;7.60;76.33;93714.44;2069149;69;20183;-74
2022/12/27 13:25:53;;;;;;;4.93;3.40;;;;;;;7.57;77.08;93714.88;2069403;69;20239;-75
2022/12/27 13:28:47;;;;;;;9.80;6.57;;;;;;;7.34;75.54;93714.94;2070790;69;20157;-74
2022/12/27 13:31:35;;;;;;;102.95;53.47;;;;;;;7.46;75.05;93715.28;2069626;69;20546;-75
2022/12/27 13:34:23;;;;;;;23.52;13.95;;;;;;;7.32;75.11;93709.91;2070476;69;20160;-75
2022/12/27 13:37:10;;;;;;;8.98;6.97;;;;;;;7.51;74.51;93711.50;2071115;69;20141;-75